< < Back
Terminal Aerodrome Forecast


Current Version              Previous Versions:   1  2  3  4  5  6  7  8  9  

Terminal Aerodrome Forecast

647
FTUS42 KFFC 261100
TAFCSG
TAF
KCSG 261122Z 2612/2712 00000KT P6SM FEW020
     FM261600 28007KT P6SM SCT045
     FM270200 25004KT P6SM FEW050=

Latest METAR

408
SAUS70 KWBC 261200 RRR
MTRCSG
METAR KCSG 261251Z AUTO 00000KT 7SM CLR 25/23 A3006 RMK AO2 SLP172
T02500228


USA.gov is the U.S. government's official web portal to all federal, state and local government web resources and services.